Richmond, VA

1:40 PM EDT on March 30, 2015 (GMT -0400)
University Hts. | | Change Station
CLOSE
Current Station
Personal Weather Station
Location: Richmond, VA
Elevation: 276 ft
Nearby Weather Stations

Elev 276 ft 37.59 °N, 77.56 °W | Updated 4 seconds ago

Partly Cloudy
Partly Cloudy
61.6 °F
Feels Like 61.6 °F
N
3.8
Wind Variable Wind from NNW
Gusts 4.0 mph

Today
High -- | Low -- °F
--% Chance of Precip.
Yesterday
High -- | Low -- °F
Precip. -- in
6:59 AM 7:30 PM
Waxing Gibbous, 81% visible
Pressure 29.95 in
Visibility 10.0 miles
Clouds Few 8500 ft
Mostly Cloudy 25000 ft
Dew Point 38 °F
Humidity 41%
Rainfall 0.00 in
Snow Depth Not available.
UV 5 out of 12
Pollen 8.50 out of 12
Air Quality Not available.
Flu Activity Not available.
METAR KRIC 301654Z 25010KT 10SM FEW085 BKN250 14/01 A2993 RMK AO2 SLP141 T01440006

More Conditions Fewer Conditions

Pressure 29.95 in
Visibility 10.0 miles
Clouds Few 8500 ft
Mostly Cloudy 25000 ft
Dew Point 38 °F
Humidity 41%
Rainfall 0.00 in
Snow Depth Not available.
UV 5 out of 12
Pollen 8.50 out of 12
Air Quality Not available.
Flu Activity Not available.
METAR KRIC 301654Z 25010KT 10SM FEW085 BKN250 14/01 A2993 RMK AO2 SLP141 T01440006

More Conditions Fewer Conditions

10-Day Weather Forecast

Almanac

Astronomy

Mar. 30, 2015 Rise Set
Actual Time
Civil Twilight
Nautical Twilight
Astronomical Twilight
Moon
Length of Visible Light
Length of Day
Tomorrow will be .
, % of the Moon is Illuminated

Today's Extremes

State Highs State Lows

Community

WunderPhotos

Upload Photos

1,809,549 photos uploaded!

WunderBlogs® & News

Nearby

Air Quality

  Air Quality AQ Index Pollutant
Not available.

Snow Depth

Station Depth Elevation

Earthquake Activity

City Distance Mag. Time & Date
Minimum magnitude displayed is 2.5.

Coastal Water Temperatures

Place Temperature

Stations

Nearby Weather Stations

Station Location Temp. Windchill Dew Point Humidity Wind Precip. Elev Updated Type